Kraljevo, Serbia
Current Conditions -  °F | °C
As of 1:30 PM on Saturday 22 Nov 2014 (Local Time) from LYKV Reporting Station
Scattered Clouds Scattered Clouds  
Wind Chill: 50°   Ceiling: Unl
Heat Index: 50°   Visibility: 6mi
Dew Point: 36°   Wind: 5mph
Humidity: 58%   Direction: 70°ENE
Pressure: 30.3"   Gusts: NA
Location:  43.74°N, 20.67°E
Report Text: LYKV 221130Z 07004KT 350V120 9999 SCT040 10/02 Q1026 NOSIG
Loading
Personal Weather Stations






























Interactive Weather Map New forecast layout! Learn more

10-Day Weather Forecast

Advertisements
Track Severe Weather on mobile